METAR AND TAF INFORMATION
METAR FOR LECH
ADDS - METARS form results

(0444 UTC 18 January 2020)
Data provider http://aviationweather.gov/metar/data/
 
METAR text: LECH 180430Z AUTO VRB02KT CAVOK 08/00 Q1029
Conditions at: LECH (CASTELLON , ES) observed 0430 UTC 18 January 2020
Temperature: 8.0°C (46°F)
Dewpoint: 0.0°C (32°F) [RH = 57%]
Pressure (altimeter): 30.38 inches Hg (1029.0 mb)
Winds: variable direction winds at 2 MPH (2 knots; 1.0 m/s)
Visibility: 6 or more miles (10+ km)
Ceiling: ceiling and visibility are OK
Clouds: unknown
Weather: no significant weather observed at this time

METAR text: LECH 180400Z AUTO VRB02KT CAVOK 05/00 Q1030
Conditions at: LECH (CASTELLON , ES) observed 0400 UTC 18 January 2020
Temperature: 5.0°C (41°F)
Dewpoint: 0.0°C (32°F) [RH = 70%]
Pressure (altimeter): 30.41 inches Hg (1030.0 mb)
Winds: variable direction winds at 2 MPH (2 knots; 1.0 m/s)
Visibility: 6 or more miles (10+ km)
Ceiling: ceiling and visibility are OK
Clouds: unknown
Weather: no significant weather observed at this time

 AIRPORT MAP

 RUNWAY INFORMATION

 AIRPORT FREQUENCIES

 AIRPORT NEAR NAVIGATION AIDS



Powered by Virtual Airlines Manager [v2.6.2]